Latest Weather Observations for Hogan Island

IDV60801

Issued at 11:02 pm EST Wednesday 24 May 2017 (issued every 30 minutes, with the page automatically refreshed every 10 minutes)

About weather observations | Map of weather stations | Latest weather observations for VIC | Other Formats
Station Details ID: 200838 Name: HOGAN ISLAND Lat: -39.22 Lon: 146.98 Height: 116.0 m
Data from the previous 72 hours. | See also: Recent months at Hogan Island
Date/Time
EST
Temp
°C
App
Temp
°C
Dew
Point
°C
Rel
Hum
%
Delta-T
°C
Wind Press
QNH
hPa
Press
MSL
hPa
Rain since
9am
mm
Dir  Spd
km/h
Gust
km/h
Spd
kts
Gust
kts
24/11:00pm 13.0 - - - - W 54 61 29 33 1016.5 - 1.4
24/10:30pm 12.7 - - - - WSW 48 56 26 30 1016.5 - 1.4
24/10:00pm 13.1 - - - - W 48 57 26 31 1016.5 - 1.4
24/09:30pm 13.2 - - - - W 52 57 28 31 1016.4 - 1.4
24/09:00pm 12.7 - - - - W 56 69 30 37 1016.3 1016.3 1.4
24/08:30pm 13.0 - - - - W 57 63 31 34 1016.1 - 1.4
24/08:00pm 13.0 - - - - W 63 72 34 39 1015.6 - 1.4
24/07:30pm 12.9 - - - - W 59 69 32 37 1015.7 - 1.4
24/07:00pm 12.3 - - - - W 59 74 32 40 1015.2 - 1.4
24/06:41pm 12.6 - 14.1 - - W 61 82 33 44 1015.0 - 1.0
24/06:30pm 13.3 - 14.3 - - W 61 74 33 40 1015.0 - 1.0
24/06:00pm 13.4 - 14.3 - - W 61 69 33 37 1014.8 1014.8 1.0
24/05:30pm 13.2 - 14.1 - - W 67 76 36 41 1014.2 - 1.0
24/05:00pm 13.5 - 14.4 - - W 67 78 36 42 1013.8 - 1.0
24/04:30pm 13.4 - 14.3 - - W 70 83 38 45 1013.2 - 1.0
24/04:00pm 13.4 - 14.3 - - W 69 82 37 44 1012.7 - 1.0
24/03:30pm 12.0 - - - - WSW 69 82 37 44 1012.6 - 1.0
24/03:19pm 12.4 - 13.4 - - W 72 95 39 51 1012.0 - 1.0
24/03:00pm 13.7 - 14.7 - - W 69 76 37 41 1011.9 1011.9 1.0
24/02:30pm 13.2 - - - - W 61 70 33 38 1011.9 - 1.0
24/02:00pm 13.0 - - - - W 69 87 37 47 1011.0 - 1.0
24/01:57pm 13.1 - - - - W 63 82 34 44 1011.1 - 1.0
24/01:30pm 13.4 - - - - WSW 57 67 31 36 1011.4 - 1.0
24/01:00pm 12.2 - - - - W 67 80 36 43 1011.1 - 1.0
24/12:56pm 11.6 - - - - W 72 91 39 49 1010.9 - 1.0
24/12:47pm 12.2 - - - - W 80 91 43 49 1010.6 - 1.0
24/12:34pm 12.8 - - - - W 57 78 31 42 1011.1 - 0.8
24/12:30pm 13.2 - - - - W 57 67 31 36 1011.2 - 0.8
24/12:00pm 12.0 - - - - W 67 76 36 41 1011.2 1011.2 0.8
24/11:41am 14.6 - - - - W 54 72 29 39 1011.2 - 0.0
24/11:30am 13.4 - - - - W 61 67 33 36 1011.3 - 0.0
24/11:15am 13.4 - - - - W 63 82 34 44 1011.5 - 0.0
24/11:00am 13.8 - - - - W 63 72 34 39 1011.3 - 0.0
24/10:30am 13.5 - - - - W 61 72 33 39 1011.3 - 0.0
24/10:00am 12.0 - - - - W 69 83 37 45 1010.9 - 0.0
24/09:53am 12.5 - - - - W 76 83 41 45 1010.6 - 0.0
24/09:50am 13.7 - - - - WNW 54 76 29 41 1010.7 - 0.0
24/09:30am 14.3 - - - - W 57 70 31 38 1011.0 - 0.0
24/09:00am 13.6 - - - - W 61 72 33 39 1010.5 1010.6 2.2
24/08:30am 13.3 - - - - W 56 65 30 35 1010.6 - 2.2
24/08:00am 11.8 - - - - W 59 78 32 42 1010.4 - 2.0
24/07:30am 13.3 - - - - WNW 57 78 31 42 1010.2 - 1.4
24/07:28am 13.4 - - - - W 59 78 32 42 1010.2 - 1.4
24/07:00am 13.7 - - - - WNW 57 67 31 36 1009.8 - 1.4
24/06:30am 13.9 - - - - WNW 56 65 30 35 1009.8 - 1.4
24/06:00am 13.8 - - - - WNW 43 54 23 29 1009.8 1009.8 1.4
24/05:30am 13.9 - - - - WNW 43 50 23 27 1009.8 - 1.4
24/05:00am 13.9 - - - - WNW 46 52 25 28 1009.6 - 1.4
24/04:30am 14.3 - - - - WNW 44 50 24 27 1009.9 - 1.4
24/04:00am 14.1 - - - - NW 32 44 17 24 1009.9 - 1.4
24/03:30am 14.3 - - - - WNW 35 43 19 23 1010.3 - 1.4
24/03:00am 14.1 - - - - NW 22 28 12 15 1010.9 1010.9 1.4
24/02:30am 14.2 - - - - NW 15 19 8 10 1011.0 - 1.4
24/02:00am 14.4 - - - - NW 17 20 9 11 1011.0 - 1.4
24/01:30am 14.5 - - - - NW 19 22 10 12 1011.1 - 1.4
24/01:00am 13.9 - - - - N 20 28 11 15 1011.2 - 1.4
24/12:30am 14.1 - - - - N 19 22 10 12 1011.7 - 1.4
24/12:00am 14.7 - - - - NNW 24 30 13 16 1012.1 1012.1 1.4
 
Date/Time
EST
Temp
°C
App
Temp
°C
Dew
Point
°C
Rel
Hum
%
Delta-T
°C
Wind Press
QNH
hPa
Press
MSL
hPa
Rain since
9am
mm
Dir  Spd
km/h
Gust
km/h
Spd
kts
Gust
kts
23/11:30pm 14.6 - - - - NNW 19 28 10 15 1012.6 - 1.4
23/11:00pm 14.4 - - - - N 19 26 10 14 1012.9 - 1.4
23/10:30pm 14.1 - - - - N 19 24 10 13 1013.2 - 1.4
23/10:00pm 13.8 - - - - N 20 26 11 14 1013.4 - 1.4
23/09:30pm 13.5 - - - - N 13 17 7 9 1013.5 - 1.4
23/09:00pm 14.0 - - - - NNW 13 17 7 9 1013.7 1013.7 1.4
23/08:30pm 13.5 - - - - N 13 19 7 10 1013.6 - 1.4
23/08:00pm 13.4 - - - - NNW 13 15 7 8 1013.7 - 1.4
23/07:30pm 14.2 - - - - N 15 19 8 10 1014.0 - 1.4
23/07:00pm 13.8 - - - - N 9 17 5 9 1013.9 - 1.4
23/06:30pm 13.1 - - - - NE 13 15 7 8 1014.1 - 1.4
23/06:00pm 13.4 - - - - ENE 17 20 9 11 1014.1 1014.1 1.4
23/05:30pm 13.2 - - - - E 17 19 9 10 1013.9 - 1.4
23/05:00pm 13.7 - - - - CALM 0 2 0 1 1014.1 - 1.4
23/04:30pm 13.7 - - - - N 19 24 10 13 1014.2 - 1.0
23/04:00pm 14.0 - - - - NNW 20 28 11 15 1014.3 - 0.6
23/03:30pm 14.3 - - - - WNW 26 30 14 16 1014.2 - 0.0
23/03:00pm 15.4 - 16.5 - - NW 26 33 14 18 1014.4 1014.4 0.0
23/02:30pm 16.0 - 16.8 - - NNW 20 24 11 13 1014.1 - 0.0
23/02:00pm 17.1 - 17.7 - - N 17 20 9 11 1014.2 - 0.0
23/01:30pm 16.8 - 17.7 - - N 20 26 11 14 1014.4 - 0.0
23/01:00pm 16.6 - 17.5 - - N 20 26 11 14 1014.8 - 0.0
23/12:30pm 17.0 - 17.9 - - NNE 20 26 11 14 1015.3 - 0.0
23/12:00pm 16.8 - 17.7 - - N 22 28 12 15 1015.5 1015.5 0.0
23/11:30am 16.5 - - - - N 24 28 13 15 1016.1 - 0.0
23/11:00am 16.4 - 17.5 - - N 17 24 9 13 1016.9 - 0.0
23/10:30am 16.7 - 17.5 - - N 19 26 10 14 1017.0 - 0.0
23/10:00am 16.8 - 17.7 - - N 17 22 9 12 1016.8 - 0.0
23/09:30am 16.7 - 17.6 - - N 19 24 10 13 1017.1 - 0.0
23/09:00am 15.7 - - - - N 17 20 9 11 1017.0 1017.0 0.0
23/08:30am 15.2 - - - - N 17 20 9 11 1017.2 - 0.0
23/08:00am 14.4 - - - - NNE 17 20 9 11 1017.1 - 0.0
23/07:30am 14.4 - - - - NNE 17 19 9 10 1017.2 - 0.0
23/07:00am 14.4 - - - - NNE 13 15 7 8 1017.0 - 0.0
23/06:30am 15.1 - - - - NNW 13 19 7 10 1016.9 - 0.0
23/06:00am 14.1 - - - - WNW 13 15 7 8 1016.9 1016.9 0.0
23/05:30am 14.0 - - - - W 17 20 9 11 1016.9 - 0.0
23/05:00am 14.2 - - - - W 19 20 10 11 1016.9 - 0.0
23/04:30am 14.2 - - - - W 22 24 12 13 1016.9 - 0.0
23/04:00am 14.4 - - - - W 19 20 10 11 1017.0 - 0.0
23/03:30am 14.7 - - - - WNW 19 22 10 12 1016.8 - 0.0
23/03:00am 14.8 - - - - NW 20 24 11 13 1016.9 1016.9 0.0
23/02:30am 14.7 - - - - N 17 20 9 11 1016.7 - 0.0
23/02:00am 14.9 - - - - N 22 30 12 16 1016.9 - 0.0
23/01:30am 14.8 - - - - NNE 24 28 13 15 1016.9 - 0.0
23/01:00am 14.8 - - - - NE 26 32 14 17 1016.6 - 0.0
23/12:30am 14.8 - - - - ENE 24 28 13 15 1017.0 - 0.0
23/12:00am 14.7 - - - - NE 22 24 12 13 1017.9 1018.0 0.0
 
Date/Time
EST
Temp
°C
App
Temp
°C
Dew
Point
°C
Rel
Hum
%
Delta-T
°C
Wind Press
QNH
hPa
Press
MSL
hPa
Rain since
9am
mm
Dir  Spd
km/h
Gust
km/h
Spd
kts
Gust
kts
22/11:30pm 14.8 - - - - NNE 19 22 10 12 1018.6 - 0.0
22/11:00pm 14.7 - - - - NE 19 24 10 13 1018.7 - 0.0
22/10:30pm 14.6 - - - - NE 24 28 13 15 1018.6 - 0.0
22/10:00pm 14.6 - - - - NE 24 28 13 15 1018.7 - 0.0
22/09:30pm 14.5 - - - - NE 24 28 13 15 1018.9 - 0.0
22/09:00pm 14.4 - - - - NE 20 24 11 13 1019.1 1019.2 0.0
22/08:30pm 14.4 - - - - NE 26 32 14 17 1018.9 - 0.0
22/08:00pm 14.4 - - - - NE 28 32 15 17 1018.9 - 0.0
22/07:30pm 14.4 - - - - NE 30 33 16 18 1018.7 - 0.0
22/07:00pm 14.2 - - - - NE 26 30 14 16 1018.8 - 0.0
22/06:30pm 14.3 - - - - NE 24 30 13 16 1018.7 - 0.0
22/06:00pm 14.2 - - - - NE 24 30 13 16 1018.6 1018.7 0.0
22/05:30pm 14.2 - - - - NE 22 28 12 15 1018.7 - 0.0
22/05:00pm 14.4 - - - - NE 20 24 11 13 1019.0 - 0.0
22/04:30pm 14.9 - - - - NNE 20 24 11 13 1018.9 - 0.0
22/04:00pm 15.7 - 16.8 - - NNE 20 24 11 13 1018.8 - 0.0
22/03:30pm 16.4 - 17.5 - - NNE 19 24 10 13 1018.8 - 0.0
22/03:00pm 17.1 - 18.2 - - NNE 15 20 8 11 1018.8 1018.9 0.0
22/02:30pm 17.6 - 18.5 - - NNE 13 17 7 9 1019.1 - 0.0
22/02:00pm 17.9 - 18.7 - - NNE 13 15 7 8 1019.3 - 0.0
22/01:30pm 18.5 - 19.0 - - NNE 11 15 6 8 1019.9 - 0.0
22/01:00pm 19.7 20.8 19.7 100 0.0 N 13 17 7 9 1020.2 - 0.0
22/12:30pm 18.9 - - - - N 17 20 9 11 1020.6 - 0.0
22/12:00pm 19.4 - - - - N 17 20 9 11 1020.9 1020.9 0.0
22/11:30am 18.7 14.8 5.5 42 6.5 N 15 19 8 10 1021.3 - 0.0
22/11:00am 18.2 - 18.7 - - N 15 19 8 10 1021.7 - 0.0
22/10:30am 17.7 - 18.6 - - N 13 17 7 9 1021.8 - 0.0
22/10:00am 16.7 - 17.8 - - N 19 20 10 11 1022.0 - 0.0
22/09:30am 16.1 - - - - N 17 19 9 10 1022.2 - 0.0
22/09:00am 15.8 - - - - N 15 17 8 9 1022.2 1022.2 0.0
22/08:30am 15.4 - - - - N 13 17 7 9 1022.2 - 0.0
22/08:00am 14.8 - - - - NNW 17 19 9 10 1021.9 - 0.0
22/07:30am 14.6 - - - - NNW 20 24 11 13 1021.6 - 0.0
22/07:00am 14.1 - - - - N 11 17 6 9 1021.4 - 0.0
22/06:30am 14.1 - - - - NNW 15 17 8 9 1021.2 - 0.0
22/06:00am 14.5 - - - - NW 19 24 10 13 1021.2 1021.2 0.0
22/05:30am 14.7 - - - - NW 20 26 11 14 1020.9 - 0.0
22/05:00am 14.6 - - - - NW 20 24 11 13 1020.7 - 0.0
22/04:30am 14.4 - - - - NW 19 20 10 11 1020.7 - 0.0
22/04:00am 14.5 - - - - WNW 20 24 11 13 1020.8 - 0.0
22/03:30am 14.7 - - - - WNW 26 28 14 15 1020.6 - 0.0
22/03:00am 14.6 - - - - NW 22 26 12 14 1020.7 1020.7 0.0
22/02:30am 14.6 - - - - WNW 24 30 13 16 1020.6 - 0.0
22/02:00am 14.8 - - - - NW 20 26 11 14 1020.6 - 0.0
22/01:30am 14.5 - - - - WNW 24 28 13 15 1020.5 - 0.0
22/01:00am 14.7 - - - - NW 20 26 11 14 1020.7 - 0.0
22/12:30am 14.7 - - - - WNW 22 28 12 15 1020.7 - 0.0
22/12:00am 14.9 - - - - NW 20 26 11 14 1020.8 1020.8 0.0
 
Date/Time
EST
Temp
°C
App
Temp
°C
Dew
Point
°C
Rel
Hum
%
Delta-T
°C
Wind Press
QNH
hPa
Press
MSL
hPa
Rain since
9am
mm
Dir  Spd
km/h
Gust
km/h
Spd
kts
Gust
kts
21/11:30pm 15.1 - - - - WNW 24 28 13 15 1020.8 - 0.0

Other Formats:

Comma delimited format used in spreadsheet applications
http://www.bom.gov.au/fwo/IDV60801/IDV60801.94949.axf

JavaScript Object Notation format (JSON) in row-major order
http://www.bom.gov.au/fwo/IDV60801/IDV60801.94949.json